Time;durP1;ratioP1;P1;durP2;ratioP2;P2;SDS_P1;SDS_P2;PMS_P1;PMS_P2;Temp;Humidity;BMP_temperature;BMP_pressure;BME280_temperature;BME280_humidity;BME280_pressure;Samples;Min_cycle;Max_cycle;Signal;HPM_P1;HPM_P2
2022/04/07 00:01:55;;;;;;;;;;;18.70;35.00;;;;;;8365127;28;19963;-49
2022/04/07 00:05:55;;;;;;;;;;;18.70;35.00;;;;;;8335431;28;20303;-49
2022/04/07 00:09:56;;;;;;;;;;;18.70;35.60;;;;;;8334078;28;19937;-51
2022/04/07 00:13:56;;;;;;;;;;;18.70;35.00;;;;;;8333457;28;19917;-50
2022/04/07 00:17:57;;;;;;;;;;;18.70;35.00;;;;;;8332818;28;19979;-50
2022/04/07 00:21:59;;;;;;;;;;;18.70;35.00;;;;;;8333430;28;20029;-48
2022/04/07 00:25:59;;;;;;;;;;;18.70;35.00;;;;;;8333698;28;19935;-49
2022/04/07 00:30:00;;;;;;;;;;;18.70;35.00;;;;;;8332476;28;19917;-52
2022/04/07 00:34:00;;;;;;;;;;;18.60;35.00;;;;;;8333022;28;19921;-50
2022/04/07 00:38:01;;;;;;;;;;;18.60;35.00;;;;;;8332727;28;19974;-49
2022/04/07 00:42:02;;;;;;;;;;;18.60;35.00;;;;;;8331973;28;19936;-50
2022/04/07 00:46:03;;;;;;;;;;;18.60;35.10;;;;;;8332955;28;19913;-49
2022/04/07 00:50:04;;;;;;;;;;;18.60;35.10;;;;;;8332231;28;19924;-50
2022/04/07 00:54:05;;;;;;;;;;;18.60;35.00;;;;;;8331693;28;19952;-54
2022/04/07 00:58:05;;;;;;;;;;;18.60;35.10;;;;;;8332128;28;19963;-50
2022/04/07 01:02:06;;;;;;;;;;;18.60;35.10;;;;;;8332063;28;20378;-49
2022/04/07 01:06:07;;;;;;;;;;;18.60;35.00;;;;;;8331464;28;19913;-50
2022/04/07 01:10:08;;;;;;;;;;;18.60;35.20;;;;;;8357652;28;20011;-51
2022/04/07 01:14:09;;;;;;;;;;;18.60;35.10;;;;;;8351143;28;19921;-49
2022/04/07 01:18:09;;;;;;;;;;;18.60;35.00;;;;;;8330899;28;19924;-52
2022/04/07 01:22:09;;;;;;;;;;;18.60;35.00;;;;;;8331480;28;19952;-49
2022/04/07 01:26:10;;;;;;;;;;;18.60;35.00;;;;;;8331545;28;19986;-51
2022/04/07 01:30:11;;;;;;;;;;;18.60;35.00;;;;;;8330718;28;19991;-54
2022/04/07 01:34:15;;;;;;;;;;;18.60;35.10;;;;;;8331098;28;19968;-49
2022/04/07 01:38:16;;;;;;;;;;;18.60;35.10;;;;;;8330532;28;19917;-50
2022/04/07 01:42:17;;;;;;;;;;;18.60;35.10;;;;;;8331128;28;19996;-50
2022/04/07 01:46:19;;;;;;;;;;;18.60;35.10;;;;;;8330327;28;19936;-49
2022/04/07 01:50:23;;;;;;;;;;;18.50;35.00;;;;;;8330245;28;20358;-49
2022/04/07 01:54:23;;;;;;;;;;;18.60;35.10;;;;;;8330545;28;19924;-50
2022/04/07 01:58:24;;;;;;;;;;;18.60;35.10;;;;;;8330248;28;20374;-51
2022/04/07 02:02:24;;;;;;;;;;;18.60;35.10;;;;;;8329943;28;20447;-48
2022/04/07 02:06:25;;;;;;;;;;;18.50;35.00;;;;;;8330458;28;19913;-52
2022/04/07 02:10:28;;;;;;;;;;;18.50;35.00;;;;;;8330175;28;19918;-55
2022/04/07 02:14:28;;;;;;;;;;;18.50;35.00;;;;;;8329803;28;19940;-48
2022/04/07 02:18:29;;;;;;;;;;;18.50;35.00;;;;;;8330123;28;19917;-48
2022/04/07 02:22:29;;;;;;;;;;;18.50;35.00;;;;;;8329911;28;19929;-51
2022/04/07 02:26:30;;;;;;;;;;;18.50;35.00;;;;;;8329898;28;19914;-52
2022/04/07 02:30:31;;;;;;;;;;;18.50;35.00;;;;;;8330229;28;19921;-50
2022/04/07 02:34:31;;;;;;;;;;;18.50;35.10;;;;;;8329997;28;20370;-49
2022/04/07 02:38:33;;;;;;;;;;;18.50;35.10;;;;;;8329341;28;20000;-50
2022/04/07 02:42:33;;;;;;;;;;;18.50;35.10;;;;;;8329810;28;19932;-49
2022/04/07 02:46:34;;;;;;;;;;;18.50;35.10;;;;;;8330018;28;19913;-49
2022/04/07 02:50:34;;;;;;;;;;;18.40;35.10;;;;;;8329144;28;19917;-52
2022/04/07 02:54:35;;;;;;;;;;;18.50;35.10;;;;;;8329644;28;19994;-49
2022/04/07 02:58:36;;;;;;;;;;;18.40;35.10;;;;;;8332010;28;19928;-51
2022/04/07 03:02:36;;;;;;;;;;;18.50;35.10;;;;;;8335154;28;19929;-52
2022/04/07 03:06:37;;;;;;;;;;;18.40;35.00;;;;;;8335842;28;19919;-49
2022/04/07 03:10:37;;;;;;;;;;;18.50;35.10;;;;;;8335524;28;20406;-49
2022/04/07 03:14:38;;;;;;;;;;;18.50;35.00;;;;;;8334927;28;19917;-49
2022/04/07 03:18:38;;;;;;;;;;;18.50;35.00;;;;;;8335132;28;20297;-50
2022/04/07 03:22:38;;;;;;;;;;;18.40;34.90;;;;;;8335045;28;20500;-51
2022/04/07 03:26:39;;;;;;;;;;;18.40;35.00;;;;;;8334754;28;20008;-48
2022/04/07 03:30:39;;;;;;;;;;;18.50;35.00;;;;;;8334857;28;19917;-49
2022/04/07 03:34:40;;;;;;;;;;;18.50;35.00;;;;;;8334894;28;20012;-49
2022/04/07 03:38:40;;;;;;;;;;;18.40;34.90;;;;;;8334218;28;19917;-50
2022/04/07 03:42:40;;;;;;;;;;;18.40;34.90;;;;;;8334264;28;20325;-54
2022/04/07 03:46:41;;;;;;;;;;;18.40;34.80;;;;;;8334689;28;20008;-50
2022/04/07 03:50:42;;;;;;;;;;;18.40;34.80;;;;;;8333686;28;19971;-50
2022/04/07 03:54:42;;;;;;;;;;;18.40;34.80;;;;;;8334431;28;19921;-50
2022/04/07 03:58:43;;;;;;;;;;;18.40;34.80;;;;;;8334271;28;19960;-52
2022/04/07 04:02:43;;;;;;;;;;;18.40;34.80;;;;;;8333370;28;19956;-51
2022/04/07 04:06:44;;;;;;;;;;;18.50;34.80;;;;;;8333913;28;19913;-53
2022/04/07 04:10:45;;;;;;;;;;;18.40;34.80;;;;;;8332703;28;19925;-48
2022/04/07 04:14:45;;;;;;;;;;;18.50;34.80;;;;;;8333091;28;20494;-49
2022/04/07 04:18:45;;;;;;;;;;;18.40;34.80;;;;;;8333353;28;19971;-51
2022/04/07 04:22:46;;;;;;;;;;;18.50;34.80;;;;;;8333329;28;20014;-53
2022/04/07 04:26:46;;;;;;;;;;;18.50;34.80;;;;;;8332841;28;19920;-49
2022/04/07 04:30:47;;;;;;;;;;;18.40;34.80;;;;;;8333230;28;19921;-50
2022/04/07 04:34:47;;;;;;;;;;;18.50;34.80;;;;;;8332995;28;20414;-48
2022/04/07 04:38:48;;;;;;;;;;;18.50;34.80;;;;;;8332303;28;19924;-51
2022/04/07 04:42:48;;;;;;;;;;;18.40;34.80;;;;;;8332663;28;19921;-49
2022/04/07 04:46:49;;;;;;;;;;;18.50;34.80;;;;;;8332890;28;19913;-52
2022/04/07 04:50:49;;;;;;;;;;;18.50;34.80;;;;;;8331881;28;19917;-51
2022/04/07 04:54:50;;;;;;;;;;;18.40;34.80;;;;;;8332329;28;20412;-51
2022/04/07 04:58:50;;;;;;;;;;;18.40;34.70;;;;;;8331749;28;19921;-51
2022/04/07 05:02:50;;;;;;;;;;;18.40;34.80;;;;;;8331751;28;19921;-50
2022/04/07 05:06:51;;;;;;;;;;;18.40;34.80;;;;;;8332078;28;19921;-49
2022/04/07 05:10:51;;;;;;;;;;;18.40;34.80;;;;;;8331724;28;19928;-50
2022/04/07 05:14:52;;;;;;;;;;;18.40;34.80;;;;;;8331189;28;19924;-50
2022/04/07 05:18:52;;;;;;;;;;;18.40;34.70;;;;;;8331471;28;19924;-48
2022/04/07 05:22:53;;;;;;;;;;;18.40;34.70;;;;;;8330969;28;19978;-49
2022/04/07 05:26:53;;;;;;;;;;;18.50;34.80;;;;;;8330673;28;19967;-48
2022/04/07 05:30:54;;;;;;;;;;;18.40;34.80;;;;;;8331172;28;19917;-48
2022/04/07 05:34:54;;;;;;;;;;;18.40;34.70;;;;;;8331134;28;20370;-48
2022/04/07 05:38:55;;;;;;;;;;;18.40;34.80;;;;;;8330430;28;19917;-48
2022/04/07 05:42:55;;;;;;;;;;;18.40;34.80;;;;;;8330992;28;19956;-48
2022/04/07 05:46:56;;;;;;;;;;;18.40;34.80;;;;;;8330710;28;19924;-48
2022/04/07 05:50:56;;;;;;;;;;;18.40;34.70;;;;;;8330067;28;19917;-47
2022/04/07 05:54:57;;;;;;;;;;;18.40;34.70;;;;;;8330780;28;19917;-49
2022/04/07 05:58:57;;;;;;;;;;;18.40;34.70;;;;;;8330683;28;19925;-52
2022/04/07 06:02:58;;;;;;;;;;;18.40;34.80;;;;;;8330128;28;20390;-48
2022/04/07 06:06:58;;;;;;;;;;;18.40;34.70;;;;;;8330230;28;19924;-50
2022/04/07 06:10:59;;;;;;;;;;;18.40;34.70;;;;;;8330314;28;20032;-50
2022/04/07 06:14:59;;;;;;;;;;;18.40;34.70;;;;;;8329613;28;19963;-52
2022/04/07 06:19:00;;;;;;;;;;;18.40;34.70;;;;;;8329933;28;19917;-49
2022/04/07 06:23:00;;;;;;;;;;;18.40;34.70;;;;;;8330075;28;19949;-49
2022/04/07 06:27:01;;;;;;;;;;;18.40;34.70;;;;;;8329381;28;20294;-48
2022/04/07 06:31:01;;;;;;;;;;;18.40;34.70;;;;;;8329812;28;20081;-52
2022/04/07 06:35:01;;;;;;;;;;;18.40;34.70;;;;;;8335995;28;19921;-53
2022/04/07 06:39:03;;;;;;;;;;;18.40;35.20;;;;;;8335880;28;19921;-53
2022/04/07 06:43:03;;;;;;;;;;;18.40;34.70;;;;;;8336750;28;19914;-49
2022/04/07 06:47:04;;;;;;;;;;;18.40;34.70;;;;;;8336153;28;19924;-49
2022/04/07 06:51:04;;;;;;;;;;;18.40;34.70;;;;;;8335603;28;19987;-51
2022/04/07 06:55:05;;;;;;;;;;;18.40;34.70;;;;;;8336055;28;19940;-48
2022/04/07 06:59:06;;;;;;;;;;;18.40;34.70;;;;;;8336047;28;19921;-49
2022/04/07 07:03:07;;;;;;;;;;;18.40;34.60;;;;;;8335471;28;19925;-49
2022/04/07 07:07:10;;;;;;;;;;;18.40;34.60;;;;;;8317769;28;20259;-48
2022/04/07 07:11:11;;;;;;;;;;;18.40;34.60;;;;;;8334819;28;19975;-49
2022/04/07 07:15:11;;;;;;;;;;;18.40;34.60;;;;;;8335573;28;19956;-53
2022/04/07 07:19:14;;;;;;;;;;;18.40;34.70;;;;;;8335550;28;20480;-48
2022/04/07 07:23:15;;;;;;;;;;;18.40;34.70;;;;;;8335432;28;19948;-50
2022/04/07 07:27:16;;;;;;;;;;;18.50;34.70;;;;;;8335121;28;20374;-48
2022/04/07 07:31:16;;;;;;;;;;;18.40;34.70;;;;;;8334798;28;19917;-50
2022/04/07 07:35:17;;;;;;;;;;;18.40;34.70;;;;;;8334344;28;19940;-50
2022/04/07 07:39:17;;;;;;;;;;;18.40;34.70;;;;;;8334448;28;19927;-51
2022/04/07 07:43:18;;;;;;;;;;;18.40;34.70;;;;;;8333774;28;19913;-51
2022/04/07 07:47:18;;;;;;;;;;;18.50;34.80;;;;;;8333922;28;19917;-49
2022/04/07 07:51:19;;;;;;;;;;;18.40;34.80;;;;;;8334204;28;20291;-50
2022/04/07 07:55:19;;;;;;;;;;;18.50;34.80;;;;;;8334080;28;20290;-49
2022/04/07 07:59:20;;;;;;;;;;;18.40;34.80;;;;;;8315639;28;19925;-51
2022/04/07 08:03:20;;;;;;;;;;;18.50;34.90;;;;;;8333944;28;19913;-49
2022/04/07 08:07:22;;;;;;;;;;;18.50;34.90;;;;;;8333777;28;19921;-52
2022/04/07 08:11:22;;;;;;;;;;;18.50;34.90;;;;;;8333166;28;19921;-51
2022/04/07 08:15:24;;;;;;;;;;;18.50;34.90;;;;;;8333506;28;19917;-48
2022/04/07 08:19:25;;;;;;;;;;;18.50;35.00;;;;;;8333285;28;19921;-49
2022/04/07 08:23:26;;;;;;;;;;;18.60;34.90;;;;;;8332952;28;19923;-48
2022/04/07 08:27:27;;;;;;;;;;;18.60;34.90;;;;;;8332990;28;19924;-53
2022/04/07 08:31:27;;;;;;;;;;;18.60;34.90;;;;;;8332862;28;19917;-48
2022/04/07 08:35:28;;;;;;;;;;;18.60;34.90;;;;;;8332284;28;19920;-51
2022/04/07 08:39:28;;;;;;;;;;;18.60;34.90;;;;;;8332926;28;19921;-50
2022/04/07 08:43:28;;;;;;;;;;;18.60;34.90;;;;;;8332787;28;19917;-49
2022/04/07 08:47:30;;;;;;;;;;;18.60;35.00;;;;;;8332071;28;19936;-49
2022/04/07 08:51:31;;;;;;;;;;;18.60;35.00;;;;;;8332254;28;19960;-50
2022/04/07 08:55:32;;;;;;;;;;;18.60;35.00;;;;;;8332442;28;19921;-53
2022/04/07 08:59:33;;;;;;;;;;;18.60;35.00;;;;;;8331439;28;19925;-49
2022/04/07 09:03:33;;;;;;;;;;;18.60;35.00;;;;;;8332356;28;19920;-51
2022/04/07 09:07:34;;;;;;;;;;;18.60;35.10;;;;;;8331772;28;19960;-49
2022/04/07 09:11:35;;;;;;;;;;;18.60;35.00;;;;;;8331329;28;19917;-49
2022/04/07 09:15:35;;;;;;;;;;;18.60;35.00;;;;;;8331515;28;19971;-53
2022/04/07 09:19:37;;;;;;;;;;;18.60;35.10;;;;;;8331733;28;20341;-50
2022/04/07 09:23:38;;;;;;;;;;;18.60;35.10;;;;;;8331080;28;19928;-51
2022/04/07 09:27:39;;;;;;;;;;;18.60;35.10;;;;;;8356450;28;19921;-49
2022/04/07 09:31:40;;;;;;;;;;;18.60;35.20;;;;;;8364026;28;19997;-51
2022/04/07 09:35:59;;;;;;;;;;;18.60;35.20;;;;;;8363406;28;19952;-49
2022/04/07 09:40:03;;;;;;;;;;;18.60;35.30;;;;;;8363957;28;19924;-50
2022/04/07 09:44:05;;;;;;;;;;;18.60;35.30;;;;;;8363988;28;19924;-49
2022/04/07 09:48:06;;;;;;;;;;;18.60;35.30;;;;;;8362957;28;20011;-49
2022/04/07 09:52:07;;;;;;;;;;;18.60;35.30;;;;;;8363593;28;19916;-49
2022/04/07 09:56:08;;;;;;;;;;;18.60;35.30;;;;;;8363468;28;20289;-50
2022/04/07 10:00:09;;;;;;;;;;;18.60;35.30;;;;;;8362541;28;20043;-51
2022/04/07 10:04:10;;;;;;;;;;;18.60;35.40;;;;;;8363529;28;19963;-48
2022/04/07 10:08:11;;;;;;;;;;;18.60;35.30;;;;;;8343353;28;19918;-50
2022/04/07 10:12:11;;;;;;;;;;;18.60;35.40;;;;;;8329622;28;19939;-53
2022/04/07 10:16:14;;;;;;;;;;;18.60;35.30;;;;;;8330077;28;20016;-49
2022/04/07 10:20:16;;;;;;;;;;;18.60;35.50;;;;;;8329835;28;19929;-52
2022/04/07 10:24:26;;;;;;;;;;;18.60;35.40;;;;;;8330255;28;20341;-48
2022/04/07 10:28:27;;;;;;;;;;;18.70;35.50;;;;;;8329922;28;20309;-50
2022/04/07 10:32:34;;;;;;;;;;;18.60;35.40;;;;;;8329357;28;19971;-53
2022/04/07 10:36:36;;;;;;;;;;;18.60;35.40;;;;;;8329827;28;20378;-53
2022/04/07 10:40:40;;;;;;;;;;;18.60;35.40;;;;;;8329677;28;19929;-50
2022/04/07 10:44:40;;;;;;;;;;;18.60;35.30;;;;;;8329409;28;19952;-53
2022/04/07 10:48:50;;;;;;;;;;;18.60;35.40;;;;;;8329381;28;19917;-48
2022/04/07 10:52:50;;;;;;;;;;;18.60;35.50;;;;;;8329338;28;19956;-50
2022/04/07 10:56:56;;;;;;;;;;;18.60;35.50;;;;;;8328957;28;19917;-50
2022/04/07 11:00:57;;;;;;;;;;;18.70;35.60;;;;;;8330231;28;19932;-49
2022/04/07 11:05:08;;;;;;;;;;;18.70;35.60;;;;;;8329676;28;19940;-51
2022/04/07 11:09:10;;;;;;;;;;;18.70;35.60;;;;;;8328904;28;20034;-52
2022/04/07 11:13:11;;;;;;;;;;;18.70;35.60;;;;;;8329075;28;19956;-49
2022/04/07 11:17:15;;;;;;;;;;;18.70;35.60;;;;;;8328926;28;20370;-52
2022/04/07 11:21:15;;;;;;;;;;;18.70;35.60;;;;;;8333281;28;19933;-52
2022/04/07 11:25:40;;;;;;;;;;;18.70;35.60;;;;;;8335361;28;19917;-50
2022/04/07 11:29:40;;;;;;;;;;;18.70;35.70;;;;;;8324088;28;19917;-50
2022/04/07 11:33:41;;;;;;;;;;;18.70;35.70;;;;;;8334833;28;19940;-49
2022/04/07 11:37:42;;;;;;;;;;;18.70;35.70;;;;;;8334658;28;20364;-53
2022/04/07 11:41:43;;;;;;;;;;;18.70;35.70;;;;;;8333847;28;20340;-47
2022/04/07 11:45:44;;;;;;;;;;;18.60;35.70;;;;;;8334535;28;19913;-53
2022/04/07 11:49:45;;;;;;;;;;;18.60;35.70;;;;;;8334590;28;20374;-50
2022/04/07 11:53:46;;;;;;;;;;;18.60;35.60;;;;;;8340830;28;19986;-51
2022/04/07 11:57:47;;;;;;;;;;;18.60;35.70;;;;;;8365249;28;19921;-53
2022/04/07 12:01:47;;;;;;;;;;;18.70;35.70;;;;;;8366653;28;19925;-49
2022/04/07 12:05:48;;;;;;;;;;;18.60;35.70;;;;;;8366347;28;20274;-53
2022/04/07 12:09:49;;;;;;;;;;;18.60;35.80;;;;;;8366871;28;20012;-49
2022/04/07 12:13:50;;;;;;;;;;;18.60;35.70;;;;;;8366393;28;19917;-48
2022/04/07 12:17:58;;;;;;;;;;;18.60;35.80;;;;;;8354048;28;19924;-52
2022/04/07 12:21:59;;;;;;;;;;;18.60;35.80;;;;;;8333217;28;19983;-52
2022/04/07 12:26:01;;;;;;;;;;;18.60;35.80;;;;;;8333232;28;19917;-49
2022/04/07 12:30:04;;;;;;;;;;;18.60;35.80;;;;;;8332522;28;19966;-50
2022/04/07 12:34:08;;;;;;;;;;;18.60;35.80;;;;;;8333163;28;19917;-52
2022/04/07 12:38:12;;;;;;;;;;;18.60;35.80;;;;;;8333309;28;20378;-48
2022/04/07 12:42:13;;;;;;;;;;;18.60;35.80;;;;;;8340027;28;19928;-52
2022/04/07 12:46:13;;;;;;;;;;;18.60;35.80;;;;;;8373221;28;19932;-50
2022/04/07 12:50:14;;;;;;;;;;;18.60;35.80;;;;;;8365985;28;19921;-50
2022/04/07 12:54:14;;;;;;;;;;;18.60;35.80;;;;;;8364566;28;19928;-51
2022/04/07 12:58:15;;;;;;;;;;;18.60;35.70;;;;;;8366146;28;19920;-50
2022/04/07 13:02:15;;;;;;;;;;;18.70;35.80;;;;;;8333315;28;19971;-50
2022/04/07 13:06:16;;;;;;;;;;;18.70;35.80;;;;;;8333435;28;19920;-52
2022/04/07 13:10:17;;;;;;;;;;;18.60;35.80;;;;;;8364535;28;20352;-50
2022/04/07 13:14:18;;;;;;;;;;;18.70;35.80;;;;;;8359015;28;20000;-53
2022/04/07 13:18:18;;;;;;;;;;;18.70;35.80;;;;;;8364472;28;19917;-51
2022/04/07 13:22:21;;;;;;;;;;;18.70;35.80;;;;;;8364432;28;20294;-52
2022/04/07 13:26:22;;;;;;;;;;;18.70;35.80;;;;;;8363514;28;19924;-53
2022/04/07 13:30:22;;;;;;;;;;;18.70;35.80;;;;;;8364143;28;19948;-49
2022/04/07 13:34:22;;;;;;;;;;;18.70;35.80;;;;;;8363865;28;19916;-52
2022/04/07 13:38:23;;;;;;;;;;;18.70;35.80;;;;;;8362965;28;19913;-50
2022/04/07 13:42:23;;;;;;;;;;;18.70;35.80;;;;;;8358641;28;19925;-52
2022/04/07 13:46:24;;;;;;;;;;;18.70;35.80;;;;;;8359618;28;19921;-52
2022/04/07 13:50:24;;;;;;;;;;;18.70;35.80;;;;;;8363013;28;19970;-48
2022/04/07 13:54:24;;;;;;;;;;;18.70;35.80;;;;;;8362243;28;19923;-51
2022/04/07 13:58:25;;;;;;;;;;;18.70;35.80;;;;;;8358784;28;19921;-51
2022/04/07 14:02:25;;;;;;;;;;;18.70;35.90;;;;;;8362441;28;19925;-52
2022/04/07 14:06:28;;;;;;;;;;;18.70;35.90;;;;;;8362496;28;22331;-52
2022/04/07 14:10:28;;;;;;;;;;;18.60;35.80;;;;;;8363067;28;19917;-50
2022/04/07 14:14:29;;;;;;;;;;;18.70;35.80;;;;;;8362548;28;19991;-53
2022/04/07 14:18:29;;;;;;;;;;;18.70;35.80;;;;;;8362574;28;19970;-52
2022/04/07 14:22:30;;;;;;;;;;;18.70;35.90;;;;;;8357981;28;19951;-50
2022/04/07 14:26:30;;;;;;;;;;;18.70;36.30;;;;;;8362587;28;19980;-52
2022/04/07 14:30:31;;;;;;;;;;;18.70;35.80;;;;;;8362817;28;19979;-53
2022/04/07 14:34:31;;;;;;;;;;;18.70;35.80;;;;;;8362292;28;19916;-51
2022/04/07 14:38:32;;;;;;;;;;;18.70;35.90;;;;;;8356806;28;20007;-49
2022/04/07 14:42:32;;;;;;;;;;;18.70;35.80;;;;;;8362562;28;19925;-50
2022/04/07 14:46:33;;;;;;;;;;;18.70;35.80;;;;;;8362992;28;19962;-52
2022/04/07 14:50:37;;;;;;;;;;;18.70;35.90;;;;;;8362001;28;19917;-49
2022/04/07 14:54:38;;;;;;;;;;;18.70;35.80;;;;;;8366165;28;19921;-51
2022/04/07 14:58:38;;;;;;;;;;;18.70;35.80;;;;;;8368788;28;19921;-50
2022/04/07 15:02:39;;;;;;;;;;;18.70;35.80;;;;;;8367992;28;19931;-50
2022/04/07 15:06:42;;;;;;;;;;;18.60;35.80;;;;;;8368544;28;20280;-50
2022/04/07 15:10:43;;;;;;;;;;;18.70;35.80;;;;;;8367869;28;19981;-50
2022/04/07 15:14:43;;;;;;;;;;;18.60;35.70;;;;;;8367758;28;19917;-50
2022/04/07 15:18:44;;;;;;;;;;;18.70;35.80;;;;;;8367982;28;19932;-48
2022/04/07 15:22:46;;;;;;;;;;;18.70;35.80;;;;;;8334819;28;19953;-53
2022/04/07 15:26:47;;;;;;;;;;;18.70;35.80;;;;;;8334563;28;19913;-50
2022/04/07 15:30:47;;;;;;;;;;;18.70;35.80;;;;;;8335005;28;19917;-52
2022/04/07 15:34:47;;;;;;;;;;;18.60;35.80;;;;;;8334646;28;19917;-52
2022/04/07 15:38:48;;;;;;;;;;;18.70;35.80;;;;;;8333885;28;20000;-50
2022/04/07 15:42:49;;;;;;;;;;;18.70;35.80;;;;;;8334312;28;19979;-51
2022/04/07 15:46:49;;;;;;;;;;;18.60;35.80;;;;;;8358947;28;19917;-50
2022/04/07 15:50:50;;;;;;;;;;;18.60;35.80;;;;;;8366685;28;19917;-49
2022/04/07 15:54:50;;;;;;;;;;;18.70;35.80;;;;;;8367323;28;19921;-53
2022/04/07 15:58:50;;;;;;;;;;;18.60;35.80;;;;;;8367128;28;19928;-49
2022/04/07 16:02:51;;;;;;;;;;;18.60;35.80;;;;;;8349846;28;19925;-50
2022/04/07 16:06:51;;;;;;;;;;;18.60;35.80;;;;;;8350484;28;19917;-52
2022/04/07 16:10:52;;;;;;;;;;;18.70;35.90;;;;;;8350343;28;19978;-50
2022/04/07 16:14:52;;;;;;;;;;;18.60;35.90;;;;;;8354834;28;19921;-52
2022/04/07 16:18:52;;;;;;;;;;;18.60;35.80;;;;;;8333231;28;19965;-52
2022/04/07 16:22:53;;;;;;;;;;;18.60;35.90;;;;;;8342756;28;20332;-48
2022/04/07 16:26:54;;;;;;;;;;;18.60;36.40;;;;;;8334619;28;19952;-51
2022/04/07 16:30:55;;;;;;;;;;;18.60;35.90;;;;;;8350827;28;19916;-50
2022/04/07 16:34:55;;;;;;;;;;;18.60;35.90;;;;;;8355658;28;19917;-52
2022/04/07 16:38:56;;;;;;;;;;;18.60;35.90;;;;;;8345299;28;19924;-51
2022/04/07 16:42:56;;;;;;;;;;;18.60;36.00;;;;;;8348522;28;19925;-50
2022/04/07 16:46:57;;;;;;;;;;;18.60;35.90;;;;;;8365629;28;20381;-52
2022/04/07 16:50:57;;;;;;;;;;;18.60;36.00;;;;;;8362080;28;20410;-50
2022/04/07 16:54:58;;;;;;;;;;;18.60;36.00;;;;;;8332202;28;19917;-48
2022/04/07 16:58:58;;;;;;;;;;;18.60;36.00;;;;;;8332175;28;19947;-53
2022/04/07 17:02:59;;;;;;;;;;;18.60;36.00;;;;;;8331202;28;19925;-49
2022/04/07 17:06:59;;;;;;;;;;;18.60;36.00;;;;;;8331922;28;19956;-49
2022/04/07 17:11:00;;;;;;;;;;;18.60;36.00;;;;;;8359111;28;19917;-48
2022/04/07 17:15:00;;;;;;;;;;;18.60;36.00;;;;;;8348107;28;19917;-50
2022/04/07 17:19:01;;;;;;;;;;;18.60;36.00;;;;;;8330484;28;19917;-52
2022/04/07 17:23:01;;;;;;;;;;;18.60;36.00;;;;;;8331047;28;20374;-49
2022/04/07 17:27:02;;;;;;;;;;;18.60;36.00;;;;;;8349965;28;19942;-50
2022/04/07 17:31:03;;;;;;;;;;;18.60;36.10;;;;;;8362104;28;19921;-50
2022/04/07 17:35:04;;;;;;;;;;;18.60;36.10;;;;;;8332956;28;19917;-49
2022/04/07 17:39:05;;;;;;;;;;;18.60;36.10;;;;;;8330113;28;19921;-48
2022/04/07 17:43:12;;;;;;;;;;;18.60;36.10;;;;;;8342242;28;19979;-49
2022/04/07 17:47:14;;;;;;;;;;;18.60;36.10;;;;;;8333481;28;20572;-50
2022/04/07 17:51:15;;;;;;;;;;;18.60;36.10;;;;;;8335695;28;19960;-50
2022/04/07 17:55:15;;;;;;;;;;;18.60;36.10;;;;;;8333848;28;19918;-52
2022/04/07 17:59:16;;;;;;;;;;;18.60;36.10;;;;;;8335400;28;19928;-50
2022/04/07 18:03:16;;;;;;;;;;;18.60;36.10;;;;;;8363154;28;19925;-49
2022/04/07 18:07:17;;;;;;;;;;;18.50;36.00;;;;;;8363141;28;19919;-49
2022/04/07 18:11:17;;;;;;;;;;;18.60;36.00;;;;;;8362669;28;19939;-49
2022/04/07 18:15:18;;;;;;;;;;;18.60;36.10;;;;;;8345486;28;19923;-51
2022/04/07 18:19:19;;;;;;;;;;;18.60;36.10;;;;;;8359599;28;19917;-52
2022/04/07 18:23:19;;;;;;;;;;;18.60;36.60;;;;;;8362408;28;19920;-52
2022/04/07 18:27:22;;;;;;;;;;;18.60;36.10;;;;;;8363325;28;20012;-52
2022/04/07 18:31:23;;;;;;;;;;;18.60;36.10;;;;;;8369510;28;20347;-48
2022/04/07 18:35:26;;;;;;;;;;;18.60;36.10;;;;;;8346226;28;19959;-54
2022/04/07 18:39:27;;;;;;;;;;;18.60;36.20;;;;;;8336194;28;19925;-52
2022/04/07 18:43:28;;;;;;;;;;;18.60;36.10;;;;;;8336333;28;19913;-51
2022/04/07 18:47:28;;;;;;;;;;;18.60;36.20;;;;;;8335895;28;19914;-54
2022/04/07 18:51:29;;;;;;;;;;;18.60;36.20;;;;;;8351048;28;19970;-54
2022/04/07 18:55:29;;;;;;;;;;;18.60;36.20;;;;;;8368850;28;20055;-51
2022/04/07 18:59:30;;;;;;;;;;;18.60;36.20;;;;;;8368394;28;20328;-54
2022/04/07 19:03:30;;;;;;;;;;;18.60;36.20;;;;;;8354811;28;19921;-51
2022/04/07 19:07:31;;;;;;;;;;;18.60;36.30;;;;;;8348841;28;20437;-50
2022/04/07 19:11:32;;;;;;;;;;;18.60;36.30;;;;;;8367929;28;19931;-49
2022/04/07 19:15:32;;;;;;;;;;;18.60;36.30;;;;;;8343458;28;20290;-50
2022/04/07 19:19:33;;;;;;;;;;;18.60;36.30;;;;;;8338471;28;19927;-49
2022/04/07 19:23:33;;;;;;;;;;;18.60;36.30;;;;;;8335663;28;20019;-49
2022/04/07 19:27:33;;;;;;;;;;;18.60;36.40;;;;;;8347527;28;19917;-52
2022/04/07 19:31:34;;;;;;;;;;;18.60;36.30;;;;;;8367942;28;19923;-50
2022/04/07 19:35:35;;;;;;;;;;;18.60;36.40;;;;;;8367243;28;19916;-49
2022/04/07 19:39:36;;;;;;;;;;;18.60;37.00;;;;;;8366559;28;19916;-53
2022/04/07 19:43:36;;;;;;;;;;;18.60;36.50;;;;;;8367877;28;19998;-51
2022/04/07 19:47:37;;;;;;;;;;;18.60;36.50;;;;;;8366904;28;19925;-49
2022/04/07 19:51:38;;;;;;;;;;;18.60;36.60;;;;;;8367387;28;20547;-48
2022/04/07 19:55:38;;;;;;;;;;;18.60;36.50;;;;;;8366982;28;19964;-49
2022/04/07 19:59:38;;;;;;;;;;;18.60;36.60;;;;;;8366691;28;20035;-48
2022/04/07 20:03:39;;;;;;;;;;;18.60;36.60;;;;;;8366921;28;19943;-50
2022/04/07 20:07:39;;;;;;;;;;;18.60;36.60;;;;;;8367071;28;19943;-50
2022/04/07 20:11:40;;;;;;;;;;;18.60;36.60;;;;;;8366335;28;19928;-48
2022/04/07 20:15:41;;;;;;;;;;;18.60;36.60;;;;;;8366889;28;19924;-49
2022/04/07 20:19:41;;;;;;;;;;;18.60;36.60;;;;;;8366540;28;20015;-52
2022/04/07 20:23:42;;;;;;;;;;;18.60;36.60;;;;;;8366014;28;19917;-48
2022/04/07 20:27:42;;;;;;;;;;;18.60;36.60;;;;;;8365970;28;19927;-48
2022/04/07 20:31:44;;;;;;;;;;;18.60;36.60;;;;;;8365936;28;19920;-51
2022/04/07 20:35:45;;;;;;;;;;;18.60;36.60;;;;;;8365386;28;19924;-49
2022/04/07 20:39:46;;;;;;;;;;;18.60;36.60;;;;;;8365963;28;20003;-49
2022/04/07 20:43:47;;;;;;;;;;;18.60;36.60;;;;;;8366248;28;20439;-48
2022/04/07 20:47:47;;;;;;;;;;;18.60;36.60;;;;;;8364925;28;19917;-51
2022/04/07 20:51:49;;;;;;;;;;;18.60;36.60;;;;;;8365391;28;19924;-51
2022/04/07 20:55:49;;;;;;;;;;;18.60;36.60;;;;;;8365393;28;20298;-49
2022/04/07 20:59:50;;;;;;;;;;;18.60;36.60;;;;;;8365018;28;19928;-52
2022/04/07 21:03:50;;;;;;;;;;;18.60;36.50;;;;;;8365063;28;19913;-49
2022/04/07 21:07:50;;;;;;;;;;;18.60;36.60;;;;;;8364808;28;19920;-52
2022/04/07 21:11:51;;;;;;;;;;;18.60;36.50;;;;;;8364190;28;19924;-50
2022/04/07 21:15:51;;;;;;;;;;;18.60;36.60;;;;;;8364861;28;19920;-48
2022/04/07 21:19:52;;;;;;;;;;;18.60;36.60;;;;;;8364449;28;19920;-52
2022/04/07 21:23:52;;;;;;;;;;;18.60;36.60;;;;;;8364050;28;19923;-50
2022/04/07 21:27:53;;;;;;;;;;;18.60;36.60;;;;;;8364141;28;20305;-52
2022/04/07 21:31:53;;;;;;;;;;;18.60;36.60;;;;;;8364085;28;19913;-53
2022/04/07 21:35:54;;;;;;;;;;;18.60;36.70;;;;;;8363437;28;19917;-49
2022/04/07 21:39:55;;;;;;;;;;;18.60;36.70;;;;;;8364070;28;19924;-51
2022/04/07 21:43:55;;;;;;;;;;;18.60;36.70;;;;;;8364245;28;20004;-54
2022/04/07 21:47:56;;;;;;;;;;;18.60;36.70;;;;;;8363338;28;20274;-49
2022/04/07 21:51:56;;;;;;;;;;;18.60;36.70;;;;;;8363501;28;19917;-48
2022/04/07 21:55:57;;;;;;;;;;;18.60;36.80;;;;;;8363547;28;19913;-48
2022/04/07 21:59:57;;;;;;;;;;;18.60;36.90;;;;;;8362891;28;19921;-51
2022/04/07 22:03:58;;;;;;;;;;;18.60;36.90;;;;;;8362101;28;19924;-50
2022/04/07 22:07:58;;;;;;;;;;;18.60;36.90;;;;;;8362007;28;19916;-51
2022/04/07 22:11:59;;;;;;;;;;;18.60;36.90;;;;;;8362666;28;19917;-49
2022/04/07 22:15:59;;;;;;;;;;;18.60;36.90;;;;;;8362890;28;19916;-50
2022/04/07 22:19:59;;;;;;;;;;;18.60;36.90;;;;;;8362882;28;19925;-51
2022/04/07 22:24:00;;;;;;;;;;;18.60;37.00;;;;;;8362672;28;19916;-54
2022/04/07 22:28:01;;;;;;;;;;;18.50;36.80;;;;;;8363057;28;20266;-53
2022/04/07 22:32:01;;;;;;;;;;;18.60;37.50;;;;;;8362628;28;19916;-51
2022/04/07 22:36:02;;;;;;;;;;;18.60;37.00;;;;;;8362183;28;19917;-50
2022/04/07 22:40:02;;;;;;;;;;;18.50;36.90;;;;;;8362681;28;19921;-50
2022/04/07 22:44:03;;;;;;;;;;;18.50;37.00;;;;;;8363138;28;20307;-50
2022/04/07 22:48:03;;;;;;;;;;;18.50;37.00;;;;;;8361968;28;19920;-50
2022/04/07 22:52:04;;;;;;;;;;;18.50;37.00;;;;;;8362664;28;20329;-51
2022/04/07 22:56:04;;;;;;;;;;;18.50;37.10;;;;;;8362664;28;19959;-51
2022/04/07 23:00:06;;;;;;;;;;;18.50;37.00;;;;;;8362220;28;19925;-49
2022/04/07 23:04:06;;;;;;;;;;;18.50;37.50;;;;;;8362793;28;19916;-51
2022/04/07 23:08:07;;;;;;;;;;;18.50;37.00;;;;;;8362430;28;20000;-52
2022/04/07 23:12:08;;;;;;;;;;;18.50;37.10;;;;;;8361993;28;19923;-50
2022/04/07 23:16:09;;;;;;;;;;;18.50;37.00;;;;;;8366853;28;19920;-50
2022/04/07 23:20:10;;;;;;;;;;;18.50;37.10;;;;;;8368618;28;19925;-50